sensor_id;sensor_type;location;lat;lon;timestamp;P1;durP1;ratioP1;P2;durP2;ratioP2
64157;SDS011;50449;51.528;5.076;2022-09-01T00:00:35;56.05;;;53.35;;
64157;SDS011;50449;51.528;5.076;2022-09-01T00:03:02;59.80;;;57.00;;
64157;SDS011;50449;51.528;5.076;2022-09-01T00:05:28;58.05;;;55.30;;
64157;SDS011;50449;51.528;5.076;2022-09-01T00:07:57;56.33;;;53.65;;
64157;SDS011;50449;51.528;5.076;2022-09-01T00:10:22;55.95;;;53.28;;
64157;SDS011;50449;51.528;5.076;2022-09-01T00:12:48;57.45;;;54.28;;
64157;SDS011;50449;51.528;5.076;2022-09-01T00:15:14;55.53;;;52.92;;
64157;SDS011;50449;51.528;5.076;2022-09-01T00:17:40;57.08;;;54.28;;
64157;SDS011;50449;51.528;5.076;2022-09-01T00:20:05;54.65;;;51.95;;
64157;SDS011;50449;51.528;5.076;2022-09-01T00:22:31;55.70;;;53.10;;
64157;SDS011;50449;51.528;5.076;2022-09-01T00:24:57;55.45;;;52.85;;
64157;SDS011;50449;51.528;5.076;2022-09-01T00:27:23;54.80;;;52.22;;
64157;SDS011;50449;51.528;5.076;2022-09-01T00:29:48;55.92;;;53.25;;
64157;SDS011;50449;51.528;5.076;2022-09-01T00:32:14;54.97;;;52.13;;
64157;SDS011;50449;51.528;5.076;2022-09-01T00:34:39;53.38;;;50.83;;
64157;SDS011;50449;51.528;5.076;2022-09-01T00:37:05;55.15;;;52.30;;
64157;SDS011;50449;51.528;5.076;2022-09-01T00:39:31;53.80;;;51.13;;
64157;SDS011;50449;51.528;5.076;2022-09-01T00:41:57;55.50;;;52.72;;
64157;SDS011;50449;51.528;5.076;2022-09-01T00:44:23;54.33;;;51.83;;
64157;SDS011;50449;51.528;5.076;2022-09-01T00:46:52;52.72;;;50.15;;
64157;SDS011;50449;51.528;5.076;2022-09-01T00:51:51;52.70;;;50.20;;
64157;SDS011;50449;51.528;5.076;2022-09-01T00:54:23;54.50;;;51.90;;
64157;SDS011;50449;51.528;5.076;2022-09-01T00:56:53;53.63;;;51.13;;
64157;SDS011;50449;51.528;5.076;2022-09-01T00:59:19;52.28;;;49.65;;
64157;SDS011;50449;51.528;5.076;2022-09-01T01:01:46;53.45;;;50.95;;
64157;SDS011;50449;51.528;5.076;2022-09-01T01:04:12;53.30;;;50.25;;
64157;SDS011;50449;51.528;5.076;2022-09-01T01:06:42;54.33;;;51.42;;
64157;SDS011;50449;51.528;5.076;2022-09-01T01:09:14;52.38;;;49.88;;
64157;SDS011;50449;51.528;5.076;2022-09-01T01:11:41;54.87;;;52.23;;
64157;SDS011;50449;51.528;5.076;2022-09-01T01:14:10;54.72;;;52.13;;
64157;SDS011;50449;51.528;5.076;2022-09-01T01:16:41;54.35;;;51.83;;
64157;SDS011;50449;51.528;5.076;2022-09-01T01:22:13;51.75;;;49.35;;
64157;SDS011;50449;51.528;5.076;2022-09-01T01:25:09;51.80;;;49.40;;
64157;SDS011;50449;51.528;5.076;2022-09-01T01:27:36;51.88;;;49.38;;
64157;SDS011;50449;51.528;5.076;2022-09-01T01:30:05;51.90;;;49.40;;
64157;SDS011;50449;51.528;5.076;2022-09-01T01:32:33;51.88;;;49.28;;
64157;SDS011;50449;51.528;5.076;2022-09-01T01:35:00;51.10;;;48.60;;
64157;SDS011;50449;51.528;5.076;2022-09-01T01:37:29;50.30;;;47.90;;
64157;SDS011;50449;51.528;5.076;2022-09-01T01:39:59;52.13;;;49.63;;
64157;SDS011;50449;51.528;5.076;2022-09-01T01:42:24;52.70;;;50.13;;
64157;SDS011;50449;51.528;5.076;2022-09-01T01:44:50;54.67;;;51.83;;
64157;SDS011;50449;51.528;5.076;2022-09-01T01:47:16;52.50;;;50.00;;
64157;SDS011;50449;51.528;5.076;2022-09-01T01:49:41;53.42;;;50.42;;
64157;SDS011;50449;51.528;5.076;2022-09-01T01:52:08;52.00;;;49.50;;
64157;SDS011;50449;51.528;5.076;2022-09-01T01:54:36;51.08;;;48.47;;
64157;SDS011;50449;51.528;5.076;2022-09-01T01:57:01;52.75;;;50.08;;
64157;SDS011;50449;51.528;5.076;2022-09-01T01:59:28;53.97;;;51.08;;
64157;SDS011;50449;51.528;5.076;2022-09-01T02:01:54;54.40;;;51.50;;
64157;SDS011;50449;51.528;5.076;2022-09-01T02:04:20;54.17;;;51.65;;
64157;SDS011;50449;51.528;5.076;2022-09-01T02:06:46;54.05;;;51.40;;
64157;SDS011;50449;51.528;5.076;2022-09-01T02:09:14;53.45;;;50.85;;
64157;SDS011;50449;51.528;5.076;2022-09-01T02:11:41;50.30;;;47.80;;
64157;SDS011;50449;51.528;5.076;2022-09-01T02:14:08;51.45;;;48.95;;
64157;SDS011;50449;51.528;5.076;2022-09-01T02:16:34;52.80;;;50.30;;
64157;SDS011;50449;51.528;5.076;2022-09-01T02:19:01;51.72;;;49.22;;
64157;SDS011;50449;51.528;5.076;2022-09-01T02:21:29;50.05;;;47.65;;
64157;SDS011;50449;51.528;5.076;2022-09-01T02:23:55;50.13;;;47.53;;
64157;SDS011;50449;51.528;5.076;2022-09-01T02:26:29;50.97;;;48.47;;
64157;SDS011;50449;51.528;5.076;2022-09-01T02:29:03;48.67;;;46.38;;
64157;SDS011;50449;51.528;5.076;2022-09-01T02:33:59;49.35;;;46.90;;
64157;SDS011;50449;51.528;5.076;2022-09-01T02:36:25;51.78;;;49.00;;
64157;SDS011;50449;51.528;5.076;2022-09-01T02:38:51;50.10;;;47.70;;
64157;SDS011;50449;51.528;5.076;2022-09-01T02:41:17;49.78;;;47.10;;
64157;SDS011;50449;51.528;5.076;2022-09-01T02:43:44;48.10;;;45.80;;
64157;SDS011;50449;51.528;5.076;2022-09-01T02:46:10;50.38;;;47.75;;
64157;SDS011;50449;51.528;5.076;2022-09-01T02:48:37;50.45;;;47.95;;
64157;SDS011;50449;51.528;5.076;2022-09-01T02:51:06;49.05;;;46.25;;
64157;SDS011;50449;51.528;5.076;2022-09-01T02:56:00;50.17;;;47.67;;
64157;SDS011;50449;51.528;5.076;2022-09-01T02:58:27;48.83;;;46.38;;
64157;SDS011;50449;51.528;5.076;2022-09-01T03:00:55;48.50;;;46.10;;
64157;SDS011;50449;51.528;5.076;2022-09-01T03:03:21;49.13;;;45.83;;
64157;SDS011;50449;51.528;5.076;2022-09-01T03:05:47;49.33;;;46.72;;
64157;SDS011;50449;51.528;5.076;2022-09-01T03:08:19;49.25;;;46.95;;
64157;SDS011;50449;51.528;5.076;2022-09-01T03:10:46;49.28;;;46.78;;
64157;SDS011;50449;51.528;5.076;2022-09-01T03:13:16;49.45;;;47.00;;
64157;SDS011;50449;51.528;5.076;2022-09-01T03:15:45;46.85;;;44.60;;
64157;SDS011;50449;51.528;5.076;2022-09-01T03:18:11;47.45;;;45.17;;
64157;SDS011;50449;51.528;5.076;2022-09-01T03:20:38;49.42;;;46.92;;
64157;SDS011;50449;51.528;5.076;2022-09-01T03:23:11;49.50;;;47.10;;
64157;SDS011;50449;51.528;5.076;2022-09-01T03:25:39;49.30;;;46.45;;
64157;SDS011;50449;51.528;5.076;2022-09-01T03:28:08;49.67;;;47.22;;
64157;SDS011;50449;51.528;5.076;2022-09-01T03:33:06;46.78;;;44.45;;
64157;SDS011;50449;51.528;5.076;2022-09-01T03:35:31;47.08;;;44.88;;
64157;SDS011;50449;51.528;5.076;2022-09-01T03:37:58;49.10;;;46.70;;
64157;SDS011;50449;51.528;5.076;2022-09-01T03:40:26;50.40;;;47.60;;
64157;SDS011;50449;51.528;5.076;2022-09-01T03:42:56;48.30;;;45.90;;
64157;SDS011;50449;51.528;5.076;2022-09-01T03:45:25;48.88;;;46.47;;
64157;SDS011;50449;51.528;5.076;2022-09-01T03:47:52;48.38;;;46.00;;
64157;SDS011;50449;51.528;5.076;2022-09-01T03:50:18;47.00;;;44.38;;
64157;SDS011;50449;51.528;5.076;2022-09-01T03:52:47;47.45;;;45.22;;
64157;SDS011;50449;51.528;5.076;2022-09-01T03:55:15;45.90;;;43.70;;
64157;SDS011;50449;51.528;5.076;2022-09-01T03:57:50;46.25;;;44.05;;
64157;SDS011;50449;51.528;5.076;2022-09-01T04:00:20;47.88;;;45.40;;
64157;SDS011;50449;51.528;5.076;2022-09-01T04:02:49;47.35;;;45.00;;
64157;SDS011;50449;51.528;5.076;2022-09-01T04:05:17;48.85;;;46.22;;
64157;SDS011;50449;51.528;5.076;2022-09-01T04:07:45;47.22;;;44.92;;
64157;SDS011;50449;51.528;5.076;2022-09-01T04:10:12;46.83;;;44.38;;
64157;SDS011;50449;51.528;5.076;2022-09-01T04:12:38;47.63;;;45.22;;
64157;SDS011;50449;51.528;5.076;2022-09-01T04:15:04;47.67;;;45.28;;
64157;SDS011;50449;51.528;5.076;2022-09-01T04:17:32;45.40;;;43.20;;
64157;SDS011;50449;51.528;5.076;2022-09-01T04:20:16;48.38;;;45.85;;
64157;SDS011;50449;51.528;5.076;2022-09-01T04:22:44;47.28;;;44.97;;
64157;SDS011;50449;51.528;5.076;2022-09-01T04:25:11;46.17;;;43.88;;
64157;SDS011;50449;51.528;5.076;2022-09-01T04:27:37;47.38;;;44.78;;
64157;SDS011;50449;51.528;5.076;2022-09-01T04:30:04;50.10;;;47.20;;
64157;SDS011;50449;51.528;5.076;2022-09-01T04:32:34;50.40;;;47.90;;
64157;SDS011;50449;51.528;5.076;2022-09-01T04:35:04;48.45;;;45.60;;
64157;SDS011;50449;51.528;5.076;2022-09-01T04:37:31;47.13;;;44.83;;
64157;SDS011;50449;51.528;5.076;2022-09-01T04:40:00;47.50;;;44.97;;
64157;SDS011;50449;51.528;5.076;2022-09-01T04:42:28;47.90;;;45.40;;
64157;SDS011;50449;51.528;5.076;2022-09-01T04:44:56;47.95;;;45.50;;
64157;SDS011;50449;51.528;5.076;2022-09-01T04:47:25;46.92;;;44.63;;
64157;SDS011;50449;51.528;5.076;2022-09-01T04:49:54;46.05;;;43.75;;
64157;SDS011;50449;51.528;5.076;2022-09-01T04:52:23;46.08;;;43.67;;
64157;SDS011;50449;51.528;5.076;2022-09-01T04:54:48;45.97;;;43.78;;
64157;SDS011;50449;51.528;5.076;2022-09-01T04:57:13;47.88;;;45.15;;
64157;SDS011;50449;51.528;5.076;2022-09-01T04:59:40;46.53;;;44.13;;
64157;SDS011;50449;51.528;5.076;2022-09-01T05:02:06;46.50;;;44.20;;
64157;SDS011;50449;51.528;5.076;2022-09-01T05:04:33;47.38;;;44.92;;
64157;SDS011;50449;51.528;5.076;2022-09-01T05:07:00;45.45;;;43.25;;
64157;SDS011;50449;51.528;5.076;2022-09-01T05:09:27;46.42;;;43.78;;
64157;SDS011;50449;51.528;5.076;2022-09-01T05:11:54;46.67;;;44.28;;
64157;SDS011;50449;51.528;5.076;2022-09-01T05:14:21;45.22;;;42.83;;
64157;SDS011;50449;51.528;5.076;2022-09-01T05:16:47;47.20;;;44.55;;
64157;SDS011;50449;51.528;5.076;2022-09-01T05:19:15;46.47;;;44.17;;
64157;SDS011;50449;51.528;5.076;2022-09-01T05:21:42;45.83;;;43.63;;
64157;SDS011;50449;51.528;5.076;2022-09-01T05:24:12;45.25;;;42.95;;
64157;SDS011;50449;51.528;5.076;2022-09-01T05:26:41;47.65;;;45.25;;
64157;SDS011;50449;51.528;5.076;2022-09-01T05:29:08;46.95;;;44.55;;
64157;SDS011;50449;51.528;5.076;2022-09-01T05:31:41;45.22;;;42.72;;
64157;SDS011;50449;51.528;5.076;2022-09-01T05:34:09;46.80;;;44.00;;
64157;SDS011;50449;51.528;5.076;2022-09-01T05:36:37;45.05;;;42.42;;
64157;SDS011;50449;51.528;5.076;2022-09-01T05:39:06;46.42;;;44.13;;
64157;SDS011;50449;51.528;5.076;2022-09-01T05:41:31;44.03;;;41.83;;
64157;SDS011;50449;51.528;5.076;2022-09-01T05:44:02;46.08;;;43.53;;
64157;SDS011;50449;51.528;5.076;2022-09-01T05:46:32;45.70;;;43.35;;
64157;SDS011;50449;51.528;5.076;2022-09-01T05:48:58;44.45;;;42.22;;
64157;SDS011;50449;51.528;5.076;2022-09-01T05:51:25;45.38;;;43.13;;
64157;SDS011;50449;51.528;5.076;2022-09-01T05:56:20;42.97;;;40.80;;
64157;SDS011;50449;51.528;5.076;2022-09-01T05:58:46;45.38;;;43.17;;
64157;SDS011;50449;51.528;5.076;2022-09-01T06:01:19;45.53;;;43.33;;
64157;SDS011;50449;51.528;5.076;2022-09-01T06:03:53;44.03;;;41.72;;
64157;SDS011;50449;51.528;5.076;2022-09-01T06:06:25;44.90;;;42.50;;
64157;SDS011;50449;51.528;5.076;2022-09-01T06:08:52;42.38;;;40.33;;
64157;SDS011;50449;51.528;5.076;2022-09-01T06:11:23;43.70;;;41.20;;
64157;SDS011;50449;51.528;5.076;2022-09-01T06:13:51;44.97;;;42.67;;
64157;SDS011;50449;51.528;5.076;2022-09-01T06:16:21;44.75;;;42.35;;
64157;SDS011;50449;51.528;5.076;2022-09-01T06:18:48;44.30;;;42.13;;
64157;SDS011;50449;51.528;5.076;2022-09-01T06:21:16;43.47;;;40.78;;
64157;SDS011;50449;51.528;5.076;2022-09-01T06:23:43;43.97;;;41.70;;
64157;SDS011;50449;51.528;5.076;2022-09-01T06:26:16;46.45;;;43.60;;
64157;SDS011;50449;51.528;5.076;2022-09-01T06:28:47;46.30;;;43.00;;
64157;SDS011;50449;51.528;5.076;2022-09-01T06:31:22;45.25;;;42.85;;
64157;SDS011;50449;51.528;5.076;2022-09-01T06:33:50;45.35;;;42.53;;
64157;SDS011;50449;51.528;5.076;2022-09-01T06:36:17;45.45;;;42.97;;
64157;SDS011;50449;51.528;5.076;2022-09-01T06:38:47;42.45;;;40.33;;
64157;SDS011;50449;51.528;5.076;2022-09-01T06:41:16;44.60;;;42.28;;
64157;SDS011;50449;51.528;5.076;2022-09-01T06:43:44;44.00;;;41.25;;
64157;SDS011;50449;51.528;5.076;2022-09-01T06:46:17;45.25;;;42.97;;
64157;SDS011;50449;51.528;5.076;2022-09-01T06:48:44;44.40;;;41.90;;
64157;SDS011;50449;51.528;5.076;2022-09-01T06:51:11;43.55;;;41.30;;
64157;SDS011;50449;51.528;5.076;2022-09-01T06:53:38;41.07;;;39.07;;
64157;SDS011;50449;51.528;5.076;2022-09-01T06:56:05;44.33;;;41.90;;
64157;SDS011;50449;51.528;5.076;2022-09-01T06:58:31;43.83;;;41.53;;
64157;SDS011;50449;51.528;5.076;2022-09-01T07:00:57;44.08;;;41.88;;
64157;SDS011;50449;51.528;5.076;2022-09-01T07:03:22;43.92;;;41.40;;
64157;SDS011;50449;51.528;5.076;2022-09-01T07:05:49;44.53;;;42.13;;
64157;SDS011;50449;51.528;5.076;2022-09-01T07:08:15;44.38;;;42.08;;
64157;SDS011;50449;51.528;5.076;2022-09-01T07:10:49;45.00;;;42.47;;
64157;SDS011;50449;51.528;5.076;2022-09-01T07:13:20;42.58;;;39.58;;
64157;SDS011;50449;51.528;5.076;2022-09-01T07:15:49;41.95;;;39.85;;
64157;SDS011;50449;51.528;5.076;2022-09-01T07:18:16;45.63;;;42.97;;
64157;SDS011;50449;51.528;5.076;2022-09-01T07:20:45;42.63;;;39.67;;
64157;SDS011;50449;51.528;5.076;2022-09-01T07:23:16;44.75;;;42.10;;
64157;SDS011;50449;51.528;5.076;2022-09-01T07:25:43;43.30;;;40.97;;
64157;SDS011;50449;51.528;5.076;2022-09-01T07:28:10;44.80;;;42.28;;
64157;SDS011;50449;51.528;5.076;2022-09-01T07:30:48;43.47;;;41.05;;
64157;SDS011;50449;51.528;5.076;2022-09-01T07:33:18;42.65;;;40.13;;
64157;SDS011;50449;51.528;5.076;2022-09-01T07:35:48;43.58;;;41.28;;
64157;SDS011;50449;51.528;5.076;2022-09-01T07:38:17;44.88;;;42.00;;
64157;SDS011;50449;51.528;5.076;2022-09-01T07:40:44;43.15;;;40.55;;
64157;SDS011;50449;51.528;5.076;2022-09-01T07:43:17;43.17;;;40.85;;
64157;SDS011;50449;51.528;5.076;2022-09-01T07:45:47;43.55;;;40.88;;
64157;SDS011;50449;51.528;5.076;2022-09-01T07:48:17;42.88;;;40.58;;
64157;SDS011;50449;51.528;5.076;2022-09-01T07:50:47;43.78;;;41.22;;
64157;SDS011;50449;51.528;5.076;2022-09-01T07:53:17;44.15;;;41.15;;
64157;SDS011;50449;51.528;5.076;2022-09-01T07:55:49;44.20;;;41.95;;
64157;SDS011;50449;51.528;5.076;2022-09-01T07:58:17;43.50;;;41.20;;
64157;SDS011;50449;51.528;5.076;2022-09-01T08:00:44;44.65;;;42.03;;
64157;SDS011;50449;51.528;5.076;2022-09-01T08:03:12;44.78;;;42.30;;
64157;SDS011;50449;51.528;5.076;2022-09-01T08:05:38;43.95;;;41.75;;
64157;SDS011;50449;51.528;5.076;2022-09-01T08:08:05;45.22;;;42.72;;
64157;SDS011;50449;51.528;5.076;2022-09-01T08:10:30;44.38;;;41.45;;
64157;SDS011;50449;51.528;5.076;2022-09-01T08:12:56;43.88;;;41.58;;
64157;SDS011;50449;51.528;5.076;2022-09-01T08:15:22;44.90;;;42.50;;
64157;SDS011;50449;51.528;5.076;2022-09-01T08:17:48;46.40;;;44.00;;
64157;SDS011;50449;51.528;5.076;2022-09-01T08:20:14;47.05;;;44.55;;
64157;SDS011;50449;51.528;5.076;2022-09-01T08:22:39;43.78;;;41.42;;
64157;SDS011;50449;51.528;5.076;2022-09-01T08:25:08;44.75;;;42.15;;
64157;SDS011;50449;51.528;5.076;2022-09-01T08:27:35;44.60;;;42.13;;
64157;SDS011;50449;51.528;5.076;2022-09-01T08:30:06;47.45;;;44.13;;
64157;SDS011;50449;51.528;5.076;2022-09-01T08:32:35;44.88;;;41.80;;
64157;SDS011;50449;51.528;5.076;2022-09-01T08:35:01;46.58;;;44.17;;
64157;SDS011;50449;51.528;5.076;2022-09-01T08:37:29;45.40;;;43.10;;
64157;SDS011;50449;51.528;5.076;2022-09-01T08:39:55;47.03;;;44.33;;
64157;SDS011;50449;51.528;5.076;2022-09-01T08:42:39;48.28;;;45.75;;
64157;SDS011;50449;51.528;5.076;2022-09-01T08:45:39;45.50;;;43.28;;
64157;SDS011;50449;51.528;5.076;2022-09-01T08:50:47;47.22;;;44.80;;
64157;SDS011;50449;51.528;5.076;2022-09-01T08:53:24;50.00;;;47.30;;
64157;SDS011;50449;51.528;5.076;2022-09-01T08:55:55;48.40;;;45.75;;
64157;SDS011;50449;51.528;5.076;2022-09-01T08:58:22;51.00;;;47.95;;
64157;SDS011;50449;51.528;5.076;2022-09-01T09:00:56;46.50;;;43.47;;
64157;SDS011;50449;51.528;5.076;2022-09-01T09:03:30;49.20;;;46.50;;
64157;SDS011;50449;51.528;5.076;2022-09-01T09:09:16;50.95;;;48.08;;
64157;SDS011;50449;51.528;5.076;2022-09-01T09:12:04;48.10;;;45.55;;
64157;SDS011;50449;51.528;5.076;2022-09-01T09:17:22;49.80;;;47.20;;
64157;SDS011;50449;51.528;5.076;2022-09-01T09:19:54;46.63;;;44.38;;
64157;SDS011;50449;51.528;5.076;2022-09-01T09:22:19;50.85;;;48.28;;
64157;SDS011;50449;51.528;5.076;2022-09-01T09:24:52;47.63;;;45.30;;
64157;SDS011;50449;51.528;5.076;2022-09-01T09:27:28;50.17;;;47.13;;
64157;SDS011;50449;51.528;5.076;2022-09-01T09:29:58;51.00;;;47.90;;
64157;SDS011;50449;51.528;5.076;2022-09-01T09:35:19;50.88;;;48.22;;
64157;SDS011;50449;51.528;5.076;2022-09-01T09:37:50;51.03;;;48.35;;
64157;SDS011;50449;51.528;5.076;2022-09-01T09:40:18;49.95;;;47.38;;
64157;SDS011;50449;51.528;5.076;2022-09-01T09:43:04;51.50;;;48.67;;
64157;SDS011;50449;51.528;5.076;2022-09-01T09:47:59;52.92;;;49.83;;
64157;SDS011;50449;51.528;5.076;2022-09-01T09:50:30;52.40;;;49.80;;
64157;SDS011;50449;51.528;5.076;2022-09-01T09:55:57;52.80;;;50.10;;
64157;SDS011;50449;51.528;5.076;2022-09-01T09:58:25;53.08;;;50.47;;
64157;SDS011;50449;51.528;5.076;2022-09-01T10:03:48;51.60;;;48.42;;
64157;SDS011;50449;51.528;5.076;2022-09-01T10:06:39;52.75;;;50.15;;
64157;SDS011;50449;51.528;5.076;2022-09-01T10:09:15;52.33;;;49.72;;
64157;SDS011;50449;51.528;5.076;2022-09-01T10:11:57;54.65;;;51.85;;
64157;SDS011;50449;51.528;5.076;2022-09-01T10:14:28;54.60;;;51.97;;
64157;SDS011;50449;51.528;5.076;2022-09-01T10:17:11;54.08;;;51.28;;
64157;SDS011;50449;51.528;5.076;2022-09-01T10:19:59;53.45;;;50.65;;
64157;SDS011;50449;51.528;5.076;2022-09-01T10:22:33;55.08;;;52.35;;
64157;SDS011;50449;51.528;5.076;2022-09-01T10:25:00;53.88;;;51.28;;
64157;SDS011;50449;51.528;5.076;2022-09-01T10:27:28;53.67;;;50.78;;
64157;SDS011;50449;51.528;5.076;2022-09-01T10:32:26;55.28;;;52.67;;
64157;SDS011;50449;51.528;5.076;2022-09-01T10:34:58;54.80;;;52.10;;
64157;SDS011;50449;51.528;5.076;2022-09-01T10:37:24;53.40;;;50.85;;
64157;SDS011;50449;51.528;5.076;2022-09-01T10:42:34;54.28;;;51.67;;
64157;SDS011;50449;51.528;5.076;2022-09-01T10:44:59;57.75;;;54.38;;
64157;SDS011;50449;51.528;5.076;2022-09-01T10:47:30;58.33;;;55.08;;
64157;SDS011;50449;51.528;5.076;2022-09-01T10:55:06;55.55;;;52.95;;
64157;SDS011;50449;51.528;5.076;2022-09-01T10:57:43;58.50;;;55.80;;
64157;SDS011;50449;51.528;5.076;2022-09-01T11:13:40;58.28;;;55.42;;
64157;SDS011;50449;51.528;5.076;2022-09-01T11:18:54;57.10;;;54.17;;
64157;SDS011;50449;51.528;5.076;2022-09-01T11:21:40;58.72;;;55.70;;
64157;SDS011;50449;51.528;5.076;2022-09-01T11:27:09;58.33;;;54.88;;
64157;SDS011;50449;51.528;5.076;2022-09-01T11:30:00;57.03;;;54.05;;
64157;SDS011;50449;51.528;5.076;2022-09-01T11:32:33;59.33;;;56.53;;
64157;SDS011;50449;51.528;5.076;2022-09-01T11:35:04;59.10;;;56.20;;
64157;SDS011;50449;51.528;5.076;2022-09-01T11:37:38;56.63;;;53.95;;
64157;SDS011;50449;51.528;5.076;2022-09-01T11:40:04;55.63;;;52.92;;
64157;SDS011;50449;51.528;5.076;2022-09-01T11:42:42;60.47;;;57.67;;
64157;SDS011;50449;51.528;5.076;2022-09-01T11:45:22;58.20;;;55.25;;
64157;SDS011;50449;51.528;5.076;2022-09-01T11:47:56;58.83;;;56.13;;
64157;SDS011;50449;51.528;5.076;2022-09-01T11:50:31;62.20;;;58.85;;
64157;SDS011;50449;51.528;5.076;2022-09-01T11:53:02;62.22;;;58.88;;
64157;SDS011;50449;51.528;5.076;2022-09-01T11:57:59;58.13;;;55.22;;
64157;SDS011;50449;51.528;5.076;2022-09-01T12:00:29;57.13;;;54.33;;
64157;SDS011;50449;51.528;5.076;2022-09-01T12:03:02;58.58;;;55.78;;
64157;SDS011;50449;51.528;5.076;2022-09-01T12:05:42;63.55;;;60.63;;
64157;SDS011;50449;51.528;5.076;2022-09-01T12:08:12;60.83;;;57.92;;
64157;SDS011;50449;51.528;5.076;2022-09-01T12:10:42;62.33;;;59.42;;
64157;SDS011;50449;51.528;5.076;2022-09-01T12:13:10;63.10;;;60.10;;
64157;SDS011;50449;51.528;5.076;2022-09-01T12:15:51;64.78;;;61.38;;
64157;SDS011;50449;51.528;5.076;2022-09-01T12:18:23;62.72;;;59.65;;
64157;SDS011;50449;51.528;5.076;2022-09-01T12:20:52;61.65;;;58.67;;
64157;SDS011;50449;51.528;5.076;2022-09-01T12:23:39;61.05;;;57.97;;
64157;SDS011;50449;51.528;5.076;2022-09-01T12:26:09;66.03;;;62.92;;
64157;SDS011;50449;51.528;5.076;2022-09-01T12:28:37;63.47;;;60.47;;
64157;SDS011;50449;51.528;5.076;2022-09-01T12:31:06;63.03;;;60.13;;
64157;SDS011;50449;51.528;5.076;2022-09-01T12:33:39;63.67;;;60.67;;
64157;SDS011;50449;51.528;5.076;2022-09-01T12:44:33;67.65;;;64.50;;
64157;SDS011;50449;51.528;5.076;2022-09-01T12:47:00;64.40;;;61.30;;
64157;SDS011;50449;51.528;5.076;2022-09-01T12:49:38;66.07;;;62.75;;
64157;SDS011;50449;51.528;5.076;2022-09-01T12:57:37;62.55;;;59.67;;
64157;SDS011;50449;51.528;5.076;2022-09-01T13:02:35;68.07;;;64.40;;
64157;SDS011;50449;51.528;5.076;2022-09-01T13:08:06;65.40;;;62.40;;
64157;SDS011;50449;51.528;5.076;2022-09-01T13:11:18;66.72;;;63.53;;
64157;SDS011;50449;51.528;5.076;2022-09-01T13:13:30;66.55;;;63.53;;
64157;SDS011;50449;51.528;5.076;2022-09-01T13:15:58;67.95;;;64.65;;
64157;SDS011;50449;51.528;5.076;2022-09-01T13:18:26;70.13;;;66.93;;
64157;SDS011;50449;51.528;5.076;2022-09-01T13:20:53;68.35;;;65.05;;
64157;SDS011;50449;51.528;5.076;2022-09-01T13:23:20;72.85;;;69.28;;
64157;SDS011;50449;51.528;5.076;2022-09-01T13:25:46;70.43;;;67.22;;
64157;SDS011;50449;51.528;5.076;2022-09-01T13:28:12;71.50;;;68.20;;
64157;SDS011;50449;51.528;5.076;2022-09-01T13:30:42;70.53;;;66.95;;
64157;SDS011;50449;51.528;5.076;2022-09-01T13:33:08;75.40;;;71.93;;
64157;SDS011;50449;51.528;5.076;2022-09-01T13:35:36;68.80;;;65.65;;
64157;SDS011;50449;51.528;5.076;2022-09-01T13:38:03;74.82;;;70.55;;
64157;SDS011;50449;51.528;5.076;2022-09-01T13:40:28;69.28;;;65.95;;
64157;SDS011;50449;51.528;5.076;2022-09-01T13:42:54;74.10;;;70.55;;
64157;SDS011;50449;51.528;5.076;2022-09-01T13:45:20;70.63;;;67.28;;
64157;SDS011;50449;51.528;5.076;2022-09-01T13:47:49;71.85;;;68.38;;
64157;SDS011;50449;51.528;5.076;2022-09-01T13:50:16;73.30;;;70.00;;
64157;SDS011;50449;51.528;5.076;2022-09-01T13:52:45;76.65;;;73.05;;
64157;SDS011;50449;51.528;5.076;2022-09-01T13:55:14;73.90;;;70.45;;
64157;SDS011;50449;51.528;5.076;2022-09-01T13:57:43;74.85;;;71.43;;
64157;SDS011;50449;51.528;5.076;2022-09-01T14:00:10;75.15;;;71.75;;
64157;SDS011;50449;51.528;5.076;2022-09-01T14:02:41;73.03;;;69.80;;
64157;SDS011;50449;51.528;5.076;2022-09-01T14:05:15;76.55;;;73.05;;
64157;SDS011;50449;51.528;5.076;2022-09-01T14:10:07;74.15;;;70.75;;
64157;SDS011;50449;51.528;5.076;2022-09-01T14:12:33;74.30;;;70.40;;
64157;SDS011;50449;51.528;5.076;2022-09-01T14:14:59;74.53;;;70.97;;
64157;SDS011;50449;51.528;5.076;2022-09-01T14:17:24;75.75;;;72.07;;
64157;SDS011;50449;51.528;5.076;2022-09-01T14:19:50;73.80;;;70.47;;
64157;SDS011;50449;51.528;5.076;2022-09-01T14:22:16;75.47;;;72.13;;
64157;SDS011;50449;51.528;5.076;2022-09-01T14:24:41;77.50;;;73.70;;
64157;SDS011;50449;51.528;5.076;2022-09-01T14:27:07;79.72;;;76.13;;
64157;SDS011;50449;51.528;5.076;2022-09-01T14:29:32;77.30;;;73.80;;
64157;SDS011;50449;51.528;5.076;2022-09-01T14:31:58;81.03;;;77.18;;
64157;SDS011;50449;51.528;5.076;2022-09-01T14:34:26;79.53;;;76.03;;
64157;SDS011;50449;51.528;5.076;2022-09-01T14:36:52;78.45;;;74.97;;
64157;SDS011;50449;51.528;5.076;2022-09-01T14:41:45;79.20;;;75.70;;
64157;SDS011;50449;51.528;5.076;2022-09-01T14:44:11;78.43;;;75.00;;
64157;SDS011;50449;51.528;5.076;2022-09-01T14:46:36;83.53;;;79.82;;
64157;SDS011;50449;51.528;5.076;2022-09-01T14:49:03;80.05;;;76.45;;
64157;SDS011;50449;51.528;5.076;2022-09-01T14:51:29;80.78;;;77.10;;
64157;SDS011;50449;51.528;5.076;2022-09-01T14:53:55;83.03;;;79.32;;
64157;SDS011;50449;51.528;5.076;2022-09-01T14:56:22;79.93;;;76.22;;
64157;SDS011;50449;51.528;5.076;2022-09-01T14:58:48;78.32;;;74.85;;
64157;SDS011;50449;51.528;5.076;2022-09-01T15:01:15;80.78;;;77.20;;
64157;SDS011;50449;51.528;5.076;2022-09-01T15:03:43;79.10;;;75.60;;
64157;SDS011;50449;51.528;5.076;2022-09-01T15:06:13;76.78;;;73.38;;
64157;SDS011;50449;51.528;5.076;2022-09-01T15:08:40;78.72;;;74.72;;
64157;SDS011;50449;51.528;5.076;2022-09-01T15:11:07;82.50;;;78.72;;
64157;SDS011;50449;51.528;5.076;2022-09-01T15:13:37;84.70;;;80.82;;
64157;SDS011;50449;51.528;5.076;2022-09-01T15:16:03;82.35;;;78.60;;
64157;SDS011;50449;51.528;5.076;2022-09-01T15:18:30;81.20;;;77.60;;
64157;SDS011;50449;51.528;5.076;2022-09-01T15:20:55;77.50;;;73.95;;
64157;SDS011;50449;51.528;5.076;2022-09-01T15:23:22;86.53;;;82.68;;
64157;SDS011;50449;51.528;5.076;2022-09-01T15:25:50;80.63;;;77.03;;
64157;SDS011;50449;51.528;5.076;2022-09-01T15:28:17;80.15;;;76.05;;
64157;SDS011;50449;51.528;5.076;2022-09-01T15:30:43;76.65;;;73.15;;
64157;SDS011;50449;51.528;5.076;2022-09-01T15:33:10;78.85;;;75.15;;
64157;SDS011;50449;51.528;5.076;2022-09-01T15:35:36;76.82;;;73.40;;
64157;SDS011;50449;51.528;5.076;2022-09-01T15:38:01;79.70;;;76.00;;
64157;SDS011;50449;51.528;5.076;2022-09-01T15:40:27;78.80;;;75.03;;
64157;SDS011;50449;51.528;5.076;2022-09-01T15:42:53;78.45;;;74.93;;
64157;SDS011;50449;51.528;5.076;2022-09-01T15:45:21;80.50;;;76.72;;
64157;SDS011;50449;51.528;5.076;2022-09-01T15:47:47;77.97;;;74.38;;
64157;SDS011;50449;51.528;5.076;2022-09-01T15:50:14;83.05;;;79.22;;
64157;SDS011;50449;51.528;5.076;2022-09-01T15:55:20;83.63;;;79.72;;
64157;SDS011;50449;51.528;5.076;2022-09-01T15:57:48;79.25;;;75.55;;
64157;SDS011;50449;51.528;5.076;2022-09-01T16:00:15;81.57;;;77.78;;
64157;SDS011;50449;51.528;5.076;2022-09-01T16:02:41;82.82;;;79.03;;
64157;SDS011;50449;51.528;5.076;2022-09-01T16:05:07;80.80;;;77.10;;